createdAt,value
2018-12-07T00:01:52.939Z,73.58
2018-12-07T00:04:26.844Z,74.00
2018-12-07T00:07:00.751Z,75.03
2018-12-07T00:09:34.533Z,75.76
2018-12-07T00:12:08.667Z,74.06
2018-12-07T00:14:42.788Z,76.77
2018-12-07T00:17:16.893Z,76.23
2018-12-07T00:19:52.220Z,76.80
2018-12-07T00:22:26.150Z,75.40
2018-12-07T00:24:59.946Z,75.18
2018-12-07T00:27:33.955Z,75.03
2018-12-07T00:30:08.171Z,76.68
2018-12-07T00:32:41.976Z,76.23
2018-12-07T00:35:16.292Z,76.79
2018-12-07T00:37:50.201Z,76.05
2018-12-07T00:40:24.009Z,75.35
2018-12-07T00:42:58.117Z,75.36
2018-12-07T00:45:32.030Z,76.79
2018-12-07T00:48:06.252Z,77.00
2018-12-07T00:50:40.044Z,75.80
2018-12-07T00:53:14.122Z,77.40
2018-12-07T00:55:48.115Z,77.14
2018-12-07T00:58:22.177Z,76.75
2018-12-07T01:00:56.044Z,77.66
2018-12-07T01:03:30.059Z,77.71
2018-12-07T01:06:04.206Z,76.88
2018-12-07T01:08:38.214Z,76.96
2018-12-07T01:11:12.139Z,76.29
2018-12-07T01:13:46.197Z,76.11
2018-12-07T01:16:20.189Z,75.78
2018-12-07T01:18:54.459Z,75.75
2018-12-07T01:21:28.570Z,76.43
2018-12-07T01:24:02.479Z,76.32
2018-12-07T01:26:36.387Z,76.10
2018-12-07T01:29:10.058Z,75.91
2018-12-07T01:31:43.751Z,75.58
2018-12-07T01:34:17.464Z,75.86
2018-12-07T01:36:51.188Z,76.27
2018-12-07T01:39:25.154Z,76.59
2018-12-07T01:41:59.220Z,77.35
2018-12-07T01:44:33.025Z,77.35
2018-12-07T01:47:06.928Z,75.64
2018-12-07T01:49:40.733Z,76.84
2018-12-07T01:52:14.670Z,76.93
2018-12-07T01:54:48.651Z,76.33
2018-12-07T01:57:23.138Z,75.19
2018-12-07T01:59:57.183Z,74.92
2018-12-07T02:02:31.293Z,74.50
2018-12-07T02:05:05.556Z,74.32
2018-12-07T02:07:39.620Z,73.89
2018-12-07T02:10:13.528Z,74.87
2018-12-07T02:12:47.507Z,74.97
2018-12-07T02:15:21.650Z,74.52
2018-12-07T02:17:55.762Z,74.76
2018-12-07T02:20:29.873Z,74.83
2018-12-07T02:23:03.885Z,74.62
2018-12-07T02:25:37.792Z,74.34
2018-12-07T02:28:11.801Z,73.29
2018-12-07T02:30:45.710Z,73.02
2018-12-07T02:33:19.821Z,73.03
2018-12-07T02:35:53.569Z,72.63
2018-12-07T02:38:27.636Z,71.85
2018-12-07T02:41:01.587Z,71.58
2018-12-07T02:43:35.654Z,71.55
2018-12-07T02:46:09.505Z,71.07
2018-12-07T02:48:43.620Z,71.69
2018-12-07T02:51:17.587Z,71.65
2018-12-07T02:53:51.597Z,72.16
2018-12-07T02:56:25.295Z,72.95
2018-12-07T02:58:59.412Z,72.15
2018-12-07T03:01:33.417Z,73.37
2018-12-07T03:04:07.426Z,73.14
2018-12-07T03:06:41.335Z,73.78
2018-12-07T03:09:15.346Z,74.45
2018-12-07T03:11:49.157Z,74.77
2018-12-07T03:14:23.157Z,74.41
2018-12-07T03:16:57.082Z,73.74
2018-12-07T03:19:30.778Z,74.28
2018-12-07T03:22:04.674Z,74.29
2018-12-07T03:24:38.686Z,73.04
2018-12-07T03:27:12.760Z,73.52
2018-12-07T03:29:46.910Z,73.70
2018-12-07T03:32:20.727Z,73.15
2018-12-07T03:34:54.723Z,72.53
2018-12-07T03:37:28.737Z,73.38
2018-12-07T03:40:02.562Z,74.39
2018-12-07T03:42:36.651Z,74.34
2018-12-07T03:45:10.614Z,75.22
2018-12-07T03:47:44.670Z,74.41
2018-12-07T03:50:18.577Z,74.05
2018-12-07T03:52:52.588Z,73.18
2018-12-07T03:55:26.396Z,73.13
2018-12-07T03:58:00.197Z,73.11
2018-12-07T04:00:34.059Z,72.81
2018-12-07T04:03:08.074Z,72.86
2018-12-07T04:05:42.226Z,71.72
2018-12-07T04:08:16.238Z,72.24
2018-12-07T04:10:50.145Z,72.51
2018-12-07T04:13:23.955Z,72.29
2018-12-07T04:15:57.855Z,73.19
2018-12-07T04:18:31.622Z,72.62
2018-12-07T04:21:05.773Z,71.86
2018-12-07T04:23:39.524Z,71.87
2018-12-07T04:26:13.599Z,73.29
2018-12-07T04:28:47.459Z,72.52
2018-12-07T04:31:21.609Z,74.11
2018-12-07T04:33:55.516Z,74.14
2018-12-07T04:36:29.526Z,74.39
2018-12-07T04:39:04.663Z,73.83
2018-12-07T04:41:38.671Z,73.96
2018-12-07T04:44:13.477Z,74.61
2018-12-07T04:46:47.510Z,72.87
2018-12-07T04:49:21.381Z,73.60
2018-12-07T04:51:55.536Z,73.56
2018-12-07T04:54:29.338Z,73.23
2018-12-07T04:57:03.449Z,72.58
2018-12-07T04:59:37.258Z,73.19
2018-12-07T05:02:11.466Z,74.22
2018-12-07T05:04:45.476Z,75.07
2018-12-07T05:07:19.485Z,74.62
2018-12-07T05:09:53.496Z,74.61
2018-12-07T05:12:27.404Z,75.04
2018-12-07T05:15:01.110Z,74.88
2018-12-07T05:17:35.325Z,74.84
2018-12-07T05:20:09.438Z,74.69
2018-12-07T05:22:43.410Z,74.01
2018-12-07T05:25:17.759Z,73.63
2018-12-07T05:27:51.668Z,73.95
2018-12-07T05:30:27.263Z,73.99
2018-12-07T05:33:01.197Z,74.55
2018-12-07T05:35:35.248Z,73.36
2018-12-07T05:38:27.061Z,74.22
2018-12-07T05:41:01.666Z,73.36
2018-12-07T05:43:37.587Z,73.01
2018-12-07T05:46:11.664Z,75.21
2018-12-07T05:48:45.514Z,74.37
2018-12-07T05:51:19.603Z,74.74
2018-12-07T05:53:53.678Z,74.10
2018-12-07T05:56:27.586Z,74.72
2018-12-07T05:59:01.493Z,74.85
2018-12-07T06:01:35.566Z,75.37
2018-12-07T06:04:09.557Z,76.16
2018-12-07T06:06:43.628Z,75.44
2018-12-07T06:09:17.532Z,75.35
2018-12-07T06:11:51.542Z,75.03
2018-12-07T06:14:25.347Z,74.66
2018-12-07T06:16:59.160Z,73.82
2018-12-07T06:19:33.126Z,74.18
2018-12-07T06:22:07.179Z,74.12
2018-12-07T06:24:41.247Z,75.40
2018-12-07T06:27:15.292Z,75.76
2018-12-07T06:29:49.303Z,74.59
2018-12-07T06:32:23.312Z,76.31
2018-12-07T06:34:57.362Z,76.70
2018-12-07T06:37:31.538Z,77.54
2018-12-07T06:40:05.959Z,77.59
2018-12-07T06:42:39.863Z,77.49
2018-12-07T06:45:13.550Z,75.84
2018-12-07T06:47:47.387Z,75.37
2018-12-07T06:50:21.381Z,75.67
2018-12-07T06:52:55.288Z,76.20
2018-12-07T06:55:29.361Z,75.19
2018-12-07T06:58:03.409Z,75.28
2018-12-07T07:00:37.522Z,76.55
2018-12-07T07:03:11.789Z,76.02
2018-12-07T07:05:46.801Z,76.09
2018-12-07T07:08:20.745Z,75.54
2018-12-07T07:10:54.735Z,76.16
2018-12-07T07:13:29.008Z,76.65
2018-12-07T07:16:02.912Z,77.67
2018-12-07T07:18:37.026Z,76.55
2018-12-07T07:21:10.931Z,77.41
2018-12-07T07:23:44.842Z,76.48
2018-12-07T07:26:18.647Z,75.92
2018-12-07T07:28:52.757Z,75.53
2018-12-07T07:31:26.513Z,75.56
2018-12-07T07:34:00.469Z,75.48
2018-12-07T07:36:35.517Z,75.74
2018-12-07T07:39:09.410Z,76.12
2018-12-07T07:41:43.225Z,76.54
2018-12-07T07:44:20.297Z,75.20
2018-12-07T07:46:54.252Z,76.25
2018-12-07T07:49:28.316Z,76.31
2018-12-07T07:52:02.184Z,75.83
2018-12-07T07:54:36.234Z,75.49
2018-12-07T07:57:09.990Z,76.06
2018-12-07T07:59:44.047Z,76.29
2018-12-07T08:02:17.822Z,77.01
2018-12-07T08:04:51.863Z,76.24
2018-12-07T08:07:25.627Z,76.19
2018-12-07T08:10:00.670Z,75.36
2018-12-07T08:12:34.658Z,74.56
2018-12-07T08:15:08.926Z,74.21
2018-12-07T08:17:49.795Z,74.49
2018-12-07T08:20:24.011Z,75.16
2018-12-07T08:22:57.818Z,74.79
2018-12-07T08:25:31.825Z,75.70
2018-12-07T08:28:05.601Z,76.56
2018-12-07T08:30:39.742Z,76.44
2018-12-07T08:33:13.650Z,76.36
2018-12-07T08:35:47.840Z,75.30
2018-12-07T08:38:21.840Z,77.27
2018-12-07T08:40:55.987Z,77.20
2018-12-07T08:43:29.996Z,76.94
2018-12-07T08:46:04.260Z,76.14
2018-12-07T08:48:38.220Z,77.90
2018-12-07T08:51:12.266Z,78.56
2018-12-07T08:53:46.138Z,79.12
2018-12-07T08:56:20.045Z,78.53
2018-12-07T08:58:53.944Z,78.08
2018-12-07T09:01:27.859Z,77.25
2018-12-07T09:04:05.761Z,77.93
2018-12-07T09:06:39.669Z,77.19
2018-12-07T09:09:13.780Z,77.46
2018-12-07T09:11:47.892Z,76.49
2018-12-07T09:14:21.800Z,75.48
2018-12-07T09:16:55.712Z,74.45
2018-12-07T09:19:35.656Z,74.18
2018-12-07T09:22:09.667Z,75.55
2018-12-07T09:24:43.471Z,75.12
2018-12-07T09:27:17.482Z,76.19
2018-12-07T09:29:51.390Z,75.45
2018-12-07T09:32:25.143Z,75.27
2018-12-07T09:35:00.505Z,74.55
2018-12-07T09:37:36.592Z,74.23
2018-12-07T09:40:11.632Z,74.86
2018-12-07T09:42:45.635Z,73.76
2018-12-07T09:45:19.543Z,73.30
2018-12-07T09:47:53.552Z,73.88
2018-12-07T09:50:28.483Z,75.17
2018-12-07T09:53:02.812Z,73.60
2018-12-07T09:55:37.017Z,73.07
2018-12-07T09:58:10.821Z,73.15
2018-12-07T10:00:48.008Z,73.36
2018-12-07T10:03:21.876Z,74.10
2018-12-07T10:05:56.129Z,72.76
2018-12-07T10:08:30.347Z,73.19
2018-12-07T10:11:04.455Z,73.57
2018-12-07T10:13:38.259Z,73.09
2018-12-07T10:16:12.168Z,72.12
2018-12-07T10:18:48.918Z,72.26
2018-12-07T10:21:23.054Z,73.19
2018-12-07T10:23:56.924Z,74.33
2018-12-07T10:26:31.072Z,73.13
2018-12-07T10:29:07.028Z,71.43
2018-12-07T10:31:41.039Z,72.17
2018-12-07T10:34:15.253Z,72.42
2018-12-07T10:36:53.461Z,72.63
2018-12-07T10:39:27.167Z,70.81
2018-12-07T10:42:01.276Z,72.10
2018-12-07T10:44:36.309Z,71.60
2018-12-07T10:47:10.319Z,70.86
2018-12-07T10:49:44.227Z,69.61
2018-12-07T10:52:38.806Z,70.65
2018-12-07T10:55:12.830Z,71.05
2018-12-07T10:57:46.838Z,72.32
2018-12-07T11:03:34.488Z,72.50
2018-12-07T11:06:10.545Z,72.34
2018-12-07T11:11:48.158Z,73.08
2018-12-07T11:17:35.604Z,74.89
2018-12-07T11:20:20.081Z,75.88
2018-12-07T11:23:11.693Z,73.71
2018-12-07T11:25:51.525Z,74.21
2018-12-07T11:28:31.168Z,73.52
2018-12-07T11:31:10.611Z,72.56
2018-12-07T11:33:46.662Z,73.23
2018-12-07T11:36:26.715Z,71.71
2018-12-07T11:39:00.725Z,72.42
2018-12-07T11:41:34.635Z,71.99
2018-12-07T11:44:08.495Z,70.79
2018-12-07T11:46:42.732Z,70.32
2018-12-07T11:49:16.665Z,70.38
2018-12-07T11:51:50.774Z,70.98
2018-12-07T11:54:24.684Z,70.57
2018-12-07T11:56:58.589Z,70.67
2018-12-07T11:59:32.495Z,69.75
2018-12-07T12:02:06.914Z,70.74
2018-12-07T12:04:40.826Z,70.87
2018-12-07T12:07:15.241Z,71.35
2018-12-07T12:09:49.164Z,70.33
2018-12-07T12:12:23.261Z,71.67
2018-12-07T12:14:57.169Z,71.45
2018-12-07T12:17:32.895Z,71.56
2018-12-07T12:20:08.085Z,72.70
2018-12-07T12:22:42.118Z,72.55
2018-12-07T12:25:28.362Z,72.46
2018-12-07T12:28:02.391Z,71.33
2018-12-07T12:30:36.619Z,72.24
2018-12-07T12:33:10.562Z,72.51
2018-12-07T12:35:50.562Z,74.19
2018-12-07T12:38:24.658Z,73.95
2018-12-07T12:41:17.165Z,74.15
2018-12-07T12:43:51.315Z,74.07
2018-12-07T12:46:31.413Z,74.32
2018-12-07T12:49:05.360Z,74.53
2018-12-07T12:51:44.504Z,72.95
2018-12-07T12:54:27.629Z,72.57
2018-12-07T12:57:01.638Z,73.35
2018-12-07T12:59:35.545Z,72.27
2018-12-07T13:02:09.604Z,72.11
2018-12-07T13:04:43.771Z,72.92
2018-12-07T13:07:17.692Z,72.94
2018-12-07T13:09:51.690Z,71.43
2018-12-07T13:12:25.632Z,72.58
2018-12-07T13:15:14.154Z,72.09
2018-12-07T13:17:48.669Z,71.43
2018-12-07T13:20:22.780Z,70.76
2018-12-07T13:23:01.909Z,71.65
2018-12-07T13:25:35.920Z,71.24
2018-12-07T13:28:09.829Z,71.77
2018-12-07T13:30:43.675Z,71.37
2018-12-07T13:33:17.745Z,71.76
2018-12-07T13:35:51.652Z,72.05
2018-12-07T13:38:25.559Z,71.64
2018-12-07T13:40:59.543Z,71.18
2018-12-07T13:43:33.758Z,72.35
2018-12-07T13:46:08.065Z,73.14
2018-12-07T13:48:42.469Z,72.26
2018-12-07T13:51:16.813Z,71.36
2018-12-07T13:53:51.003Z,73.05
2018-12-07T13:56:25.456Z,72.83
2018-12-07T13:58:59.838Z,73.55
2018-12-07T14:01:34.293Z,72.69
2018-12-07T14:04:08.317Z,72.87
2018-12-07T14:06:42.483Z,73.66
2018-12-07T14:09:16.590Z,73.06
2018-12-07T14:11:51.059Z,73.67
2018-12-07T14:14:25.334Z,73.37
2018-12-07T14:16:59.559Z,73.32
2018-12-07T14:19:33.794Z,74.75
2018-12-07T14:22:08.053Z,73.89
2018-12-07T14:24:42.540Z,74.02
2018-12-07T14:27:21.705Z,74.46
2018-12-07T14:29:55.900Z,74.30
2018-12-07T14:32:31.979Z,74.54
2018-12-07T14:35:06.485Z,74.76
2018-12-07T14:37:40.576Z,75.77
2018-12-07T14:40:14.594Z,75.32
2018-12-07T14:42:48.338Z,75.64
2018-12-07T14:45:22.763Z,74.24
2018-12-07T14:48:01.855Z,72.44
2018-12-07T14:50:36.165Z,72.89
2018-12-07T14:53:10.409Z,73.20
2018-12-07T14:55:44.599Z,72.53
2018-12-07T14:58:20.045Z,73.85
2018-12-07T15:00:55.172Z,72.72
2018-12-07T15:03:29.216Z,74.22
2018-12-07T15:06:03.526Z,74.79
2018-12-07T15:08:37.899Z,74.77
2018-12-07T15:11:12.151Z,74.64
2018-12-07T15:13:46.312Z,73.71
2018-12-07T15:16:20.742Z,73.96
2018-12-07T15:18:55.186Z,74.08
2018-12-07T15:21:31.248Z,75.08
2018-12-07T15:24:05.414Z,76.24
2018-12-07T15:26:39.569Z,75.89
2018-12-07T15:29:13.327Z,75.97
2018-12-07T15:31:47.527Z,75.25
2018-12-07T15:34:21.784Z,74.22
2018-12-07T15:36:55.988Z,74.85
2018-12-07T15:39:31.374Z,74.27
2018-12-07T15:42:05.215Z,74.91
2018-12-07T15:44:39.294Z,75.01
2018-12-07T15:47:13.392Z,74.58
2018-12-07T15:49:47.570Z,74.72
2018-12-07T15:52:21.814Z,75.39
2018-12-07T15:54:56.164Z,73.66
2018-12-07T15:57:36.391Z,73.68
2018-12-07T16:00:12.483Z,73.62
2018-12-07T16:02:47.728Z,73.08
2018-12-07T16:05:22.318Z,72.55
2018-12-07T16:07:56.576Z,73.12
2018-12-07T16:10:30.898Z,72.17
2018-12-07T16:13:05.070Z,72.06
2018-12-07T16:15:39.321Z,72.75
2018-12-07T16:18:13.556Z,73.95
2018-12-07T16:20:47.701Z,73.16
2018-12-07T16:23:21.645Z,74.22
2018-12-07T16:25:55.925Z,75.01
2018-12-07T16:28:30.136Z,75.43
2018-12-07T16:31:04.265Z,75.48
2018-12-07T16:33:38.365Z,73.64
2018-12-07T16:36:12.292Z,74.85
2018-12-07T16:38:49.560Z,74.23
2018-12-07T16:41:24.068Z,73.35
2018-12-07T16:43:58.335Z,73.97
2018-12-07T16:46:32.201Z,74.51
2018-12-07T16:49:06.661Z,74.17
2018-12-07T16:51:41.056Z,75.27
2018-12-07T16:54:15.403Z,75.44
2018-12-07T16:56:49.448Z,76.67
2018-12-07T16:59:23.378Z,75.48
2018-12-07T17:01:58.604Z,76.00
2018-12-07T17:04:32.823Z,76.04
2018-12-07T17:07:07.138Z,75.08
2018-12-07T17:09:41.463Z,75.21
2018-12-07T17:12:15.475Z,75.12
2018-12-07T17:14:49.507Z,76.14
2018-12-07T17:17:24.318Z,75.16
2018-12-07T17:19:58.904Z,75.11
2018-12-07T17:22:33.000Z,75.37
2018-12-07T17:25:07.199Z,75.70
2018-12-07T17:27:41.694Z,76.38
2018-12-07T17:30:16.319Z,77.00
2018-12-07T17:32:51.149Z,75.79
2018-12-07T17:35:25.062Z,76.10
2018-12-07T17:37:59.279Z,75.42
2018-12-07T17:40:33.472Z,76.51
2018-12-07T17:43:09.836Z,77.82
2018-12-07T17:45:43.752Z,77.31
2018-12-07T17:48:17.933Z,77.51
2018-12-07T17:50:52.758Z,77.53
2018-12-07T17:53:27.060Z,77.45
2018-12-07T17:56:01.267Z,77.02
2018-12-07T17:58:35.679Z,76.22
2018-12-07T18:01:10.060Z,74.96
2018-12-07T18:03:43.838Z,75.64
2018-12-07T18:06:17.976Z,74.87
2018-12-07T18:08:51.915Z,74.38
2018-12-07T18:11:25.979Z,75.08
2018-12-07T18:13:59.975Z,74.88
2018-12-07T18:16:34.117Z,74.79
2018-12-07T18:19:09.765Z,74.50
2018-12-07T18:21:44.289Z,75.44
2018-12-07T18:24:20.248Z,74.85
2018-12-07T18:26:54.484Z,75.50
2018-12-07T18:29:28.510Z,74.88
2018-12-07T18:32:02.831Z,76.12
2018-12-07T18:34:39.378Z,76.10
2018-12-07T18:37:13.404Z,76.25
2018-12-07T18:39:47.584Z,75.80
2018-12-07T18:42:21.793Z,75.17
2018-12-07T18:44:55.708Z,76.02
2018-12-07T18:47:29.890Z,73.64
2018-12-07T18:50:05.357Z,73.81
2018-12-07T18:52:39.556Z,74.20
2018-12-07T18:55:13.612Z,73.63
2018-12-07T18:57:47.993Z,73.41
2018-12-07T19:00:22.705Z,73.78
2018-12-07T19:02:56.994Z,71.92
2018-12-07T19:05:31.640Z,73.71
2018-12-07T19:08:05.973Z,74.82
2018-12-07T19:10:40.002Z,74.33
2018-12-07T19:13:14.108Z,75.51
2018-12-07T19:15:49.444Z,74.72
2018-12-07T19:18:23.641Z,74.77
2018-12-07T19:20:57.690Z,75.17
2018-12-07T19:23:33.199Z,74.87
2018-12-07T19:26:07.521Z,75.45
2018-12-07T19:28:41.649Z,75.39
2018-12-07T19:31:16.014Z,76.53
2018-12-07T19:33:50.340Z,76.52
2018-12-07T19:36:25.640Z,76.36
2018-12-07T19:38:59.883Z,77.35
2018-12-07T19:41:34.013Z,76.87
2018-12-07T19:44:09.045Z,76.37
2018-12-07T19:46:43.158Z,77.60
2018-12-07T19:49:19.126Z,76.64
2018-12-07T19:51:53.485Z,75.93
2018-12-07T19:54:27.668Z,76.20
2018-12-07T19:57:01.958Z,76.96
2018-12-07T19:59:36.119Z,76.00
2018-12-07T20:02:10.535Z,76.78
2018-12-07T20:04:44.451Z,76.45
2018-12-07T20:07:18.662Z,77.01
2018-12-07T20:09:53.021Z,76.49
2018-12-07T20:12:27.351Z,77.12
2018-12-07T20:15:01.652Z,77.00
2018-12-07T20:17:35.925Z,75.56
2018-12-07T20:20:09.957Z,74.77
2018-12-07T20:22:43.874Z,75.22
2018-12-07T20:25:17.853Z,75.37
2018-12-07T20:27:51.946Z,75.78
2018-12-07T20:30:26.452Z,75.49
2018-12-07T20:33:00.700Z,75.53
2018-12-07T20:35:35.093Z,75.41
2018-12-07T20:38:09.232Z,75.87
2018-12-07T20:40:44.461Z,75.16
2018-12-07T20:43:21.179Z,76.13
2018-12-07T20:45:55.512Z,76.37
2018-12-07T20:48:30.059Z,75.96
2018-12-07T20:51:04.344Z,75.38
2018-12-07T20:53:38.616Z,75.58
2018-12-07T20:56:12.592Z,75.71
2018-12-07T20:58:46.605Z,76.38
2018-12-07T21:01:20.864Z,75.41
2018-12-07T21:04:22.050Z,74.42
2018-12-07T21:17:04.607Z,74.62
2018-12-07T21:19:43.524Z,74.35
2018-12-07T21:22:18.889Z,75.29
2018-12-07T21:25:02.766Z,75.46
2018-12-07T21:27:37.324Z,75.45
2018-12-07T21:33:19.881Z,75.51
2018-12-07T21:36:06.225Z,73.63
2018-12-07T21:38:40.518Z,73.15
2018-12-07T21:41:14.865Z,73.07
2018-12-07T21:43:48.986Z,72.67
2018-12-07T21:46:22.980Z,72.82
2018-12-07T21:48:57.226Z,72.66
2018-12-07T21:51:43.453Z,72.22
2018-12-07T21:54:17.484Z,73.34
2018-12-07T21:56:51.602Z,73.99
2018-12-07T21:59:25.821Z,68.57
2018-12-07T22:01:59.946Z,68.42
2018-12-07T22:04:33.911Z,69.02
2018-12-07T22:07:08.501Z,67.67
2018-12-07T22:09:42.749Z,67.77
2018-12-07T22:12:17.105Z,66.98
2018-12-07T22:14:51.223Z,67.49
2018-12-07T22:17:25.228Z,66.06
2018-12-07T22:19:59.509Z,66.00
2018-12-07T22:22:33.729Z,65.23
2018-12-07T22:25:07.822Z,64.68
2018-12-07T22:27:41.878Z,63.76
2018-12-07T22:30:16.175Z,64.67
2018-12-07T22:32:50.315Z,66.04
2018-12-07T22:35:24.229Z,64.91
2018-12-07T22:37:58.713Z,65.06
2018-12-07T22:40:33.843Z,64.91
2018-12-07T22:43:08.652Z,65.46
2018-12-07T22:45:43.129Z,64.05
2018-12-07T22:48:17.468Z,63.88
2018-12-07T22:50:51.670Z,63.97
2018-12-07T22:53:25.624Z,63.82
2018-12-07T22:55:59.887Z,63.28
2018-12-07T22:58:33.896Z,63.27
2018-12-07T23:01:09.216Z,63.26
2018-12-07T23:03:43.148Z,63.16
2018-12-07T23:06:17.564Z,63.83
2018-12-07T23:08:51.675Z,63.71
2018-12-07T23:11:25.732Z,63.65
2018-12-07T23:13:59.807Z,63.97
2018-12-07T23:16:33.705Z,64.09
2018-12-07T23:19:08.535Z,65.42
2018-12-07T23:21:42.646Z,65.67
2018-12-07T23:24:16.353Z,65.94
2018-12-07T23:26:50.229Z,66.67
2018-12-07T23:29:23.980Z,67.73
2018-12-07T23:31:57.972Z,67.56
2018-12-07T23:34:31.744Z,67.85
2018-12-07T23:37:05.783Z,68.79
2018-12-07T23:39:39.505Z,67.62
2018-12-07T23:42:13.539Z,68.89
2018-12-07T23:44:47.609Z,68.26
2018-12-07T23:47:21.617Z,68.67
2018-12-07T23:49:55.524Z,69.54
2018-12-07T23:52:29.526Z,69.39
2018-12-07T23:55:04.428Z,69.78
2018-12-07T23:57:38.576Z,69.60
